Flight Track Log - Related Links

Times and Time Zones

All times are in EDT time to prevent confusion due to time zone crossing. See the FSR411 flight status page for this flight to view local times or setup timezone preferences in your user account.

Time Position Orientation Groundspeed Altitude Reporting Facility
EDT Latitude Longitude Course Direction KTS MPH feet Rate Location/Type
Tue 08:25:12 42.4461 -83.0564 317° Northwest 201 231 3,100  Level Cleveland Center
Tue 08:26:13 42.4906 -83.1147 316° Northwest 226 260 6,700 3,492 Climbing Cleveland Center
Tue 08:27:14 42.4786 -83.1900 258° West 267 307 10,200 3,170 Climbing Cleveland Center
Tue 08:27:59 42.4192 -83.2356 210° Southwest 307 353 12,300 1,657 Climbing Cleveland Center
Tue 08:28:59 42.3408 -83.2911 208° Southwest 401 461 13,100 1,350 Climbing Cleveland Center
Tue 08:29:59 42.2472 -83.3658 211° Southwest 401 461 15,000 2,450 Climbing Cleveland Center
Tue 08:30:59 42.1517 -83.4372 209° Southwest 401 461 18,000 2,500 Climbing Cleveland Center
Tue 08:31:59 42.0475 -83.5136 209° Southwest 421 484 20,000 2,000 Climbing Cleveland Center
Tue 08:32:59 41.9475 -83.5900 210° Southwest 421 484 22,000 2,000 Climbing Cleveland Center
Tue 08:33:59 41.8475 -83.6661 210° Southwest 421 484 24,000 1,500 Climbing Cleveland Center
Tue 08:34:59 41.7433 -83.7447 209° Southwest 426 490 25,000 500 Climbing Cleveland Center
Tue 08:35:59 41.6411 -83.8231 210° Southwest 426 490 25,000 300 Level Cleveland Center
Tue 08:36:59 41.5364 -83.9067 211° Southwest 431 496 25,600 857 Climbing Cleveland Center
Tue 08:38:19 41.4028 -84.0117 211° Southwest 430 495 27,000 1,014 Climbing Chicago Center
Tue 08:39:21 41.3000 -84.0914 210° Southwest 427 491 28,000 484 Climbing Chicago Center
Tue 08:40:23 41.2294 -84.2144 233° Southwest 428 493 28,000  Level Chicago Center
Tue 08:41:25 41.1897 -84.3656 251° West 434 499 28,000  Level Chicago Center
Tue 08:42:27 41.1514 -84.5156 251° West 430 495 28,000  Level Chicago Center
Tue 08:43:29 41.1131 -84.6664 251° West 431 496 28,000  Level Chicago Center
Tue 08:44:31 41.0747 -84.8153 251° West 429 494 28,000  Level Chicago Center
Tue 08:45:33 41.0283 -84.9958 251° West 429 494 28,000  Level Chicago Center
Tue 08:46:35 40.9894 -85.1461 251° West 431 496 28,000  Level Chicago Center
Tue 08:47:37 40.9478 -85.2964 250° West 432 497 28,000  Level Chicago Center
Tue 08:48:39 40.9042 -85.4456 249° West 434 499 28,000  Level Chicago Center
Tue 08:49:41 40.8597 -85.5942 248° West 435 501 28,000  Level Chicago Center
Tue 08:50:43 40.8164 -85.7447 249° West 436 502 28,000  Level Chicago Center
Tue 08:51:45 40.7731 -85.8942 249° West 436 502 28,000 -97 Level Chicago Center
Tue 08:52:47 40.7206 -86.0717 249° West 435 501 27,800 -726 Descending Chicago Center
Tue 08:53:49 40.6825 -86.2017 249° West 431 496 26,500 -1,500 Descending Chicago Center
Tue 08:54:51 40.6306 -86.3733 248° West 425 489 24,700 -1,210 Descending Chicago Center
Tue 08:55:53 40.5864 -86.5208 249° West 434 499 24,000 -339 Descending Chicago Center
Tue 08:56:55 40.5428 -86.6675 249° West 434 499 24,000 -97 Level Chicago Center
Tue 08:57:57 40.4972 -86.8142 248° West 436 502 23,800 -864 Descending Chicago Center
Tue 08:59:00 40.4536 -86.9589 248° West 430 495 22,200 -1,680 Descending Chicago Center
Tue 09:00:02 40.4022 -87.1269 248° West 418 481 20,300 -1,694 Descending Chicago Center
Tue 09:01:04 40.3589 -87.2636 247° West 411 473 18,700 -1,548 Descending Chicago Center
Tue 09:02:06 40.3175 -87.4003 248° West 405 466 17,100 -1,597 Descending Chicago Center
Tue 09:03:08 40.2731 -87.5422 248° West 399 459 15,400 -1,548 Descending Chicago Center
Tue 09:04:10 40.2331 -87.6717 248° West 389 448 13,900 -1,548 Descending Chicago Center
Tue 09:05:12 40.1933 -87.7956 247° West 373 429 12,200 -1,790 Descending Chicago Center
Tue 09:06:14 40.1508 -87.9281 247° West 354 407 10,200 -1,694 Descending Chicago Center
Tue 09:07:16 40.1075 -88.0200 238° Southwest 314 361 8,700 -1,935 Descending Chicago Center
Tue 09:08:18 40.0592 -88.0922 229° Southwest 280 322 6,200 -2,419 Descending Chicago Center
Tue 09:09:20 39.9947 -88.1475 213° Southwest 257 296 3,700 -2,419 Descending Chicago Center
Tue 09:11:00 40.0333 -88.2667 252° West  Level FlightAware Approximate
Tue 09:18:00 40.0388 -88.2778 252° West  Level Estimated
Tue 09:19:00 40.0388 -88.2778 252° West  Level Estimated
Tue 09:20:00 40.0388 -88.2778 252° West  Level Estimated

Login

Don't have an account? Register now (free) for customized features, flight alerts, and more!